Time;durP1;ratioP1;P1;durP2;ratioP2;P2;SDS_P1;SDS_P2;PMS_P1;PMS_P2;Temp;Humidity;BMP_temperature;BMP_pressure;BME280_temperature;BME280_humidity;BME280_pressure;Samples;Min_cycle;Max_cycle;Signal;HPM_P1;HPM_P2
2021/09/13 00:01:48;;;;;;;20.07;11.80;;;16.10;99.90;;;;;;5031192;28;20418;-69
2021/09/13 00:04:13;;;;;;;13.23;10.27;;;16.00;99.90;;;;;;5031610;28;20238;-69
2021/09/13 00:06:39;;;;;;;12.10;10.90;;;16.00;99.90;;;;;;5013913;28;20165;-69
2021/09/13 00:09:04;;;;;;;14.30;10.27;;;16.00;99.90;;;;;;5031433;28;20565;-69
2021/09/13 00:11:30;;;;;;;12.13;9.67;;;15.90;99.90;;;;;;5035193;28;20164;-69
2021/09/13 00:13:55;;;;;;;13.40;10.20;;;15.90;99.90;;;;;;5035591;28;20722;-69
2021/09/13 00:16:21;;;;;;;11.40;10.33;;;15.90;99.90;;;;;;5035602;28;20591;-69
2021/09/13 00:18:46;;;;;;;12.50;11.17;;;15.80;99.90;;;;;;5035403;28;20168;-69
2021/09/13 00:21:12;;;;;;;11.33;10.13;;;15.80;99.90;;;;;;5035384;28;20199;-69
2021/09/13 00:23:37;;;;;;;10.53;9.50;;;15.80;99.90;;;;;;5035102;28;20204;-68
2021/09/13 00:26:03;;;;;;;11.23;9.83;;;15.80;99.90;;;;;;5035296;28;20667;-69
2021/09/13 00:28:28;;;;;;;13.27;10.10;;;15.80;99.90;;;;;;5034879;28;20211;-69
2021/09/13 00:30:54;;;;;;;10.30;9.23;;;15.70;99.90;;;;;;5035088;28;20220;-69
2021/09/13 00:33:19;;;;;;;11.77;10.30;;;15.70;99.90;;;;;;5035029;28;20191;-68
2021/09/13 00:35:45;;;;;;;9.80;8.90;;;15.70;99.90;;;;;;5035331;28;20167;-68
2021/09/13 00:38:10;;;;;;;14.03;9.50;;;15.70;99.90;;;;;;5034980;28;20654;-69
2021/09/13 00:40:36;;;;;;;11.13;9.80;;;15.60;99.90;;;;;;5035090;28;20247;-67
2021/09/13 00:43:02;;;;;;;11.13;9.37;;;15.70;99.90;;;;;;5034759;28;20176;-68
2021/09/13 00:45:28;;;;;;;15.30;10.07;;;15.60;99.90;;;;;;5034892;28;20164;-68
2021/09/13 00:47:54;;;;;;;10.77;9.70;;;15.60;99.90;;;;;;5034656;28;20413;-67
2021/09/13 00:50:19;;;;;;;11.37;9.97;;;15.60;99.90;;;;;;5034719;28;20286;-68
2021/09/13 00:52:52;;;;;;;12.93;10.90;;;15.50;99.90;;;;;;5035098;28;20522;-69
2021/09/13 00:55:18;;;;;;;11.63;10.40;;;15.50;99.90;;;;;;5034625;28;20189;-69
2021/09/13 00:57:45;;;;;;;14.67;11.43;;;15.40;99.90;;;;;;5016873;28;20444;-69
2021/09/13 01:00:12;;;;;;;13.47;9.83;;;15.50;99.90;;;;;;5034510;28;20442;-70
2021/09/13 01:02:37;;;;;;;10.80;9.57;;;15.70;99.90;;;;;;5034408;28;20446;-69
2021/09/13 01:05:03;;;;;;;14.17;10.20;;;15.60;99.90;;;;;;5034416;28;20426;-69
2021/09/13 01:07:31;;;;;;;10.80;9.70;;;15.50;99.90;;;;;;5012097;28;20188;-70
2021/09/13 01:09:58;;;;;;;10.77;9.67;;;15.50;99.90;;;;;;5034434;28;20564;-69
2021/09/13 01:12:23;;;;;;;11.73;10.53;;;15.40;99.90;;;;;;5034242;28;20902;-70
2021/09/13 01:14:49;;;;;;;13.73;10.80;;;15.30;99.90;;;;;;5034530;28;20483;-69
2021/09/13 01:17:15;;;;;;;14.10;10.70;;;15.40;99.90;;;;;;5034114;28;20172;-69
2021/09/13 01:19:40;;;;;;;10.93;9.83;;;15.30;99.90;;;;;;5016537;28;20179;-69
2021/09/13 01:22:08;;;;;;;10.63;9.47;;;15.30;99.90;;;;;;5032769;28;20261;-69
2021/09/13 01:24:34;;;;;;;12.93;10.73;;;15.30;99.90;;;;;;5033984;28;20202;-70
2021/09/13 01:27:03;;;;;;;9.43;8.53;;;15.20;99.90;;;;;;5033944;28;20403;-69
2021/09/13 01:29:28;;;;;;;14.03;11.37;;;15.20;99.90;;;;;;5016487;28;20215;-69
2021/09/13 01:31:54;;;;;;;12.00;10.77;;;15.20;99.90;;;;;;5033780;28;20404;-69
2021/09/13 01:34:20;;;;;;;12.97;11.60;;;15.20;99.90;;;;;;5033756;28;20302;-69
2021/09/13 01:36:46;;;;;;;12.20;10.90;;;15.20;99.90;;;;;;5033802;28;20191;-68
2021/09/13 01:39:11;;;;;;;17.30;10.50;;;15.10;99.90;;;;;;5015804;28;20175;-69
2021/09/13 01:41:37;;;;;;;13.30;11.30;;;15.10;99.90;;;;;;5033798;28;20415;-68
2021/09/13 01:44:02;;;;;;;14.20;11.70;;;15.10;99.90;;;;;;5033713;28;20625;-69
2021/09/13 01:46:28;;;;;;;12.47;11.20;;;15.10;99.90;;;;;;5033762;28;20518;-69
2021/09/13 01:48:53;;;;;;;12.47;10.77;;;15.10;99.90;;;;;;5033493;28;20195;-69
2021/09/13 01:51:19;;;;;;;14.10;10.30;;;15.10;99.90;;;;;;5033693;28;20178;-69
2021/09/13 01:53:46;;;;;;;11.97;10.87;;;15.10;99.90;;;;;;5033554;28;20226;-70
2021/09/13 01:56:12;;;;;;;11.63;10.43;;;15.00;99.90;;;;;;5034093;28;20533;-69
2021/09/13 01:58:37;;;;;;;14.90;10.80;;;15.00;99.90;;;;;;5033862;28;20413;-69
2021/09/13 02:01:03;;;;;;;14.20;11.20;;;15.00;99.90;;;;;;5033754;28;20649;-69
2021/09/13 02:03:28;;;;;;;11.60;10.40;;;15.20;99.90;;;;;;5033654;28;20199;-69
2021/09/13 02:05:54;;;;;;;13.73;10.37;;;15.20;99.90;;;;;;5033800;28;20164;-69
2021/09/13 02:08:19;;;;;;;12.67;9.90;;;15.20;99.90;;;;;;5033641;28;20726;-69
2021/09/13 02:10:45;;;;;;;13.73;11.70;;;15.20;99.90;;;;;;5033723;28;20161;-69
2021/09/13 02:13:10;;;;;;;11.47;10.27;;;15.20;99.90;;;;;;5033292;28;20734;-69
2021/09/13 02:15:36;;;;;;;10.73;9.63;;;15.20;99.90;;;;;;5033689;28;20168;-69
2021/09/13 02:18:01;;;;;;;9.70;8.70;;;15.30;99.90;;;;;;5033192;28;20226;-69
2021/09/13 02:20:27;;;;;;;11.13;9.60;;;15.30;99.90;;;;;;5033174;28;20173;-68
2021/09/13 02:22:52;;;;;;;10.90;9.80;;;15.20;99.90;;;;;;5033092;28;20168;-68
2021/09/13 02:25:18;;;;;;;8.80;8.00;;;15.20;99.90;;;;;;5033121;28;20206;-69
2021/09/13 02:27:43;;;;;;;9.47;8.50;;;15.10;99.90;;;;;;5032966;28;20176;-69
2021/09/13 02:30:09;;;;;;;9.70;8.80;;;15.00;99.90;;;;;;5033053;28;20827;-69
2021/09/13 02:32:35;;;;;;;10.60;9.47;;;15.00;99.90;;;;;;5032471;28;20654;-69
2021/09/13 02:35:04;;;;;;;11.37;10.17;;;14.90;99.90;;;;;;5032574;28;20211;-69
2021/09/13 02:37:34;;;;;;;11.87;10.57;;;14.90;99.90;;;;;;5032512;28;20179;-69
2021/09/13 02:40:00;;;;;;;11.13;9.50;;;14.80;99.90;;;;;;5032922;28;20399;-68
2021/09/13 02:42:25;;;;;;;11.10;9.40;;;14.80;99.90;;;;;;5014695;28;20471;-69
2021/09/13 02:44:51;;;;;;;10.80;9.80;;;14.80;99.90;;;;;;5032480;28;20430;-70
2021/09/13 02:47:16;;;;;;;12.57;10.10;;;14.70;99.90;;;;;;5032341;28;20238;-70
2021/09/13 02:49:42;;;;;;;12.80;10.23;;;14.80;99.90;;;;;;5032476;28;20204;-70
2021/09/13 02:52:07;;;;;;;12.00;10.70;;;14.80;99.90;;;;;;5032477;28;20760;-69
2021/09/13 02:54:33;;;;;;;13.20;10.00;;;14.70;99.90;;;;;;5032864;28;20530;-69
2021/09/13 02:56:58;;;;;;;9.90;8.53;;;14.70;99.90;;;;;;5032560;28;20182;-70
2021/09/13 02:59:27;;;;;;;11.37;10.17;;;14.60;99.90;;;;;;5033087;28;20207;-71
2021/09/13 03:01:53;;;;;;;14.47;11.33;;;14.60;99.90;;;;;;5034136;28;20254;-72
2021/09/13 03:04:18;;;;;;;12.63;11.37;;;14.70;99.90;;;;;;5033965;28;20889;-71
2021/09/13 03:06:44;;;;;;;12.57;11.33;;;14.70;99.90;;;;;;5033905;28;20199;-69
2021/09/13 03:09:09;;;;;;;13.53;11.47;;;14.80;99.90;;;;;;5031307;28;20199;-69
2021/09/13 03:11:35;;;;;;;14.80;11.63;;;14.90;99.90;;;;;;5032456;28;20168;-69
2021/09/13 03:14:00;;;;;;;11.80;10.60;;;14.90;99.90;;;;;;5032304;28;20192;-69
2021/09/13 03:16:29;;;;;;;16.20;11.13;;;14.90;99.90;;;;;;5032342;28;20217;-69
2021/09/13 03:18:54;;;;;;;13.10;11.87;;;14.80;99.90;;;;;;5031868;28;20188;-69
2021/09/13 03:21:20;;;;;;;11.53;10.30;;;14.70;99.90;;;;;;5032079;28;20476;-69
2021/09/13 03:23:45;;;;;;;14.83;10.67;;;14.70;99.90;;;;;;5031915;28;20199;-70
2021/09/13 03:26:11;;;;;;;13.80;11.33;;;14.70;99.90;;;;;;5031240;28;20173;-69
2021/09/13 03:28:36;;;;;;;15.07;9.97;;;14.70;99.90;;;;;;5014609;28;20199;-70
2021/09/13 03:31:02;;;;;;;12.40;10.53;;;14.60;99.90;;;;;;5031940;28;20164;-69
2021/09/13 03:33:28;;;;;;;12.67;11.27;;;14.60;99.90;;;;;;5014233;28;20666;-70
2021/09/13 03:35:54;;;;;;;13.63;12.27;;;14.60;99.90;;;;;;5031879;28;20172;-69
2021/09/13 03:38:20;;;;;;;13.00;10.53;;;14.60;99.90;;;;;;5032197;28;20415;-70
2021/09/13 03:40:45;;;;;;;12.70;10.83;;;14.70;99.90;;;;;;5032031;28;20172;-69
2021/09/13 03:43:11;;;;;;;14.27;10.60;;;14.70;99.90;;;;;;5031969;28;20190;-69
2021/09/13 03:45:36;;;;;;;15.20;11.70;;;14.70;99.90;;;;;;5031320;28;20258;-70
2021/09/13 03:48:02;;;;;;;18.90;11.97;;;14.60;99.90;;;;;;5032039;28;20586;-69
2021/09/13 03:50:27;;;;;;;14.17;11.80;;;14.70;99.90;;;;;;5031888;28;20278;-69
2021/09/13 03:52:53;;;;;;;12.07;10.77;;;14.70;99.90;;;;;;5014050;28;20217;-69
2021/09/13 03:55:19;;;;;;;11.00;9.90;;;14.70;99.90;;;;;;5013930;28;20191;-70
2021/09/13 03:57:44;;;;;;;11.93;10.80;;;14.70;99.90;;;;;;5031541;28;20179;-72
2021/09/13 04:00:10;;;;;;;10.40;8.47;;;14.80;99.90;;;;;;5031843;28;20175;-68
2021/09/13 04:02:37;;;;;;;11.47;9.47;;;14.80;99.90;;;;;;5031421;28;20578;-68
2021/09/13 04:05:03;;;;;;;11.20;8.17;;;14.80;99.90;;;;;;5031557;28;20835;-70
2021/09/13 04:07:34;;;;;;;8.53;7.47;;;14.90;99.90;;;;;;5031508;28;20406;-68
2021/09/13 04:12:44;;;;;;;8.30;7.50;;;14.90;99.90;;;;;;5031321;28;20413;-68
2021/09/13 04:15:09;;;;;;;11.93;8.73;;;15.00;99.90;;;;;;5031421;28;20435;-69
2021/09/13 04:17:35;;;;;;;9.00;7.77;;;15.00;99.90;;;;;;5031638;28;20536;-70
2021/09/13 04:20:00;;;;;;;8.07;7.37;;;15.00;99.90;;;;;;5031350;28;20184;-68
2021/09/13 04:22:26;;;;;;;9.03;8.17;;;14.90;99.90;;;;;;5031143;28;20241;-69
2021/09/13 04:24:51;;;;;;;9.50;7.13;;;14.90;99.90;;;;;;5031387;28;20195;-69
2021/09/13 04:27:17;;;;;;;9.07;6.70;;;14.90;99.90;;;;;;5031443;28;20255;-68
2021/09/13 04:29:42;;;;;;;7.30;6.60;;;14.80;99.90;;;;;;5031192;28;20569;-69
2021/09/13 04:32:08;;;;;;;9.87;7.00;;;14.80;99.90;;;;;;5031204;28;20171;-68
2021/09/13 04:34:33;;;;;;;8.50;6.97;;;14.80;99.90;;;;;;5013498;28;20219;-68
2021/09/13 04:36:59;;;;;;;7.90;7.10;;;14.70;99.90;;;;;;5031065;28;20172;-69
2021/09/13 04:39:24;;;;;;;8.00;6.33;;;14.80;99.90;;;;;;5031052;28;20175;-69
2021/09/13 04:41:49;;;;;;;7.57;6.80;;;14.70;99.90;;;;;;5031125;28;20255;-68
2021/09/13 04:44:15;;;;;;;8.10;7.30;;;14.70;99.90;;;;;;5031369;28;20196;-69
2021/09/13 04:46:40;;;;;;;8.63;7.43;;;14.60;99.90;;;;;;5032100;28;20214;-69
2021/09/13 04:49:06;;;;;;;8.70;5.70;;;14.60;99.90;;;;;;5031154;28;20766;-70
2021/09/13 04:51:33;;;;;;;7.93;7.00;;;14.70;99.90;;;;;;5031021;28;20172;-69
2021/09/13 04:54:00;;;;;;;8.30;7.43;;;14.70;99.90;;;;;;5031189;28;20591;-69
2021/09/13 04:56:26;;;;;;;7.83;7.03;;;14.60;99.90;;;;;;5031217;28;20453;-69
2021/09/13 04:58:51;;;;;;;7.07;6.37;;;14.60;99.90;;;;;;5035040;28;20500;-69
2021/09/13 05:01:17;;;;;;;9.97;6.23;;;14.70;99.90;;;;;;5034530;28;20521;-70
2021/09/13 05:03:42;;;;;;;7.33;6.47;;;14.70;99.90;;;;;;5034574;28;20192;-70
2021/09/13 05:06:08;;;;;;;6.50;5.90;;;14.60;99.90;;;;;;5034581;28;20183;-69
2021/09/13 05:08:33;;;;;;;7.30;6.60;;;14.60;99.90;;;;;;5034774;28;20573;-69
2021/09/13 05:10:59;;;;;;;8.37;5.90;;;14.70;99.90;;;;;;5034361;28;20183;-69
2021/09/13 05:13:25;;;;;;;6.60;5.30;;;14.70;99.90;;;;;;5034452;28;20552;-71
2021/09/13 05:15:50;;;;;;;7.77;6.30;;;14.60;99.90;;;;;;5034541;28;20176;-69
2021/09/13 05:18:16;;;;;;;5.90;5.33;;;14.70;99.90;;;;;;5034431;28;20173;-69
2021/09/13 05:20:41;;;;;;;6.50;5.90;;;14.70;99.90;;;;;;5034677;28;20171;-69
2021/09/13 05:23:07;;;;;;;8.23;6.33;;;14.70;99.90;;;;;;5034272;28;20179;-70
2021/09/13 05:25:32;;;;;;;8.47;7.53;;;14.70;99.90;;;;;;5034195;28;20183;-70
2021/09/13 05:27:58;;;;;;;10.20;5.67;;;14.80;99.90;;;;;;5033892;28;20172;-69
2021/09/13 05:30:23;;;;;;;16.00;5.73;;;14.80;99.90;;;;;;5034119;28;20639;-70
2021/09/13 05:32:49;;;;;;;9.60;5.27;;;14.80;99.90;;;;;;5033760;28;20164;-69
2021/09/13 05:35:14;;;;;;;5.50;5.00;;;14.80;99.90;;;;;;5034048;28;20175;-70
2021/09/13 05:37:40;;;;;;;8.23;6.57;;;14.90;99.90;;;;;;5033644;28;20176;-69
2021/09/13 05:40:06;;;;;;;6.20;5.60;;;15.00;99.90;;;;;;5034295;28;20169;-69
2021/09/13 05:42:33;;;;;;;6.90;6.30;;;15.00;99.90;;;;;;5033555;28;20173;-69
2021/09/13 05:44:58;;;;;;;5.90;5.30;;;15.50;99.90;;;;;;5033635;28;20435;-69
2021/09/13 05:47:24;;;;;;;5.20;4.67;;;15.40;99.90;;;;;;5033624;28;20412;-69
2021/09/13 05:49:49;;;;;;;8.50;4.90;;;15.80;99.90;;;;;;5033494;28;20213;-69
2021/09/13 05:52:15;;;;;;;4.60;4.10;;;16.10;99.90;;;;;;5033585;28;20235;-69
2021/09/13 05:54:41;;;;;;;5.50;4.27;;;16.40;99.90;;;;;;5033281;28;20206;-68
2021/09/13 05:57:06;;;;;;;5.00;3.67;;;16.80;99.90;;;;;;5033253;28;20522;-67
2021/09/13 05:59:32;;;;;;;4.10;3.67;;;16.90;99.90;;;;;;5033402;28;20559;-67
2021/09/13 06:01:57;;;;;;;4.30;3.73;;;16.80;99.90;;;;;;5033480;28;20175;-68
2021/09/13 06:04:23;;;;;;;4.00;3.53;;;17.40;99.90;;;;;;5033545;28;20194;-69
2021/09/13 06:06:48;;;;;;;4.93;2.87;;;16.80;99.90;;;;;;5015532;28;20185;-69
2021/09/13 06:09:14;;;;;;;5.80;3.73;;;17.30;99.90;;;;;;5032702;28;20531;-69
2021/09/13 06:11:39;;;;;;;4.87;3.60;;;17.90;99.90;;;;;;5033051;28;20253;-68
2021/09/13 06:14:05;;;;;;;3.80;2.80;;;18.10;99.90;;;;;;5032822;28;20187;-68
2021/09/13 06:16:31;;;;;;;4.13;2.90;;;18.60;99.90;;;;;;5033140;28;20215;-67
2021/09/13 06:18:56;;;;;;;4.23;3.20;;;19.30;99.90;;;;;;5032949;28;20392;-67
2021/09/13 06:21:22;;;;;;;4.93;4.37;;;19.10;99.90;;;;;;5032897;28;20416;-67
2021/09/13 06:23:48;;;;;;;4.60;2.93;;;18.70;99.90;;;;;;5015151;28;20303;-68
2021/09/13 06:26:15;;;;;;;3.00;2.80;;;18.60;99.90;;;;;;5032775;28;20173;-68
2021/09/13 06:28:41;;;;;;;4.60;3.00;;;18.90;99.90;;;;;;5032705;28;20178;-67
2021/09/13 06:31:06;;;;;;;5.13;2.83;;;19.70;99.90;;;;;;5032671;28;20828;-68
2021/09/13 06:33:35;;;;;;;3.03;2.77;;;20.10;99.90;;;;;;5032774;28;20430;-68
2021/09/13 06:36:02;;;;;;;3.03;2.50;;;19.00;99.90;;;;;;5032531;28;20573;-68
2021/09/13 06:38:28;;;;;;;5.70;2.73;;;19.60;99.90;;;;;;5032626;28;20415;-68
2021/09/13 06:40:53;;;;;;;4.90;2.37;;;20.10;99.90;;;;;;5032301;28;20405;-69
2021/09/13 06:43:19;;;;;;;4.13;2.70;;;19.30;99.90;;;;;;5032504;28;20197;-68
2021/09/13 06:45:46;;;;;;;4.50;2.07;;;19.40;99.90;;;;;;5032605;28;20312;-68
2021/09/13 06:48:14;;;;;;;6.53;2.87;;;19.30;99.90;;;;;;5031934;28;20818;-68
2021/09/13 06:50:42;;;;;;;4.70;2.50;;;19.60;99.90;;;;;;5031926;28;20536;-69
2021/09/13 06:53:08;;;;;;;4.60;2.40;;;19.80;99.90;;;;;;5031590;28;20886;-68
2021/09/13 06:55:38;;;;;;;2.87;2.37;;;20.50;99.90;;;;;;5031765;28;20456;-69
2021/09/13 06:58:05;;;;;;;4.77;2.10;;;20.50;99.90;;;;;;5031495;28;20410;-68
2021/09/13 07:00:31;;;;;;;4.27;2.67;;;20.70;99.90;;;;;;5032234;28;20446;-68
2021/09/13 07:02:57;;;;;;;4.27;2.30;;;21.20;99.90;;;;;;5014619;28;20414;-68
2021/09/13 07:05:23;;;;;;;5.23;2.10;;;21.40;99.90;;;;;;5032056;28;20599;-68
2021/09/13 07:07:48;;;;;;;4.43;2.17;;;21.40;99.90;;;;;;5031591;28;20173;-68
2021/09/13 07:10:17;;;;;;;3.40;2.77;;;21.40;99.90;;;;;;5014359;28;20263;-68
2021/09/13 07:12:44;;;;;;;1.90;1.63;;;22.40;99.90;;;;;;5031975;28;20533;-69
2021/09/13 07:15:10;;;;;;;2.27;2.07;;;22.30;99.90;;;;;;5032117;28;20515;-68
2021/09/13 07:17:36;;;;;;;5.47;2.37;;;21.00;99.90;;;;;;5031997;28;20759;-69
2021/09/13 07:20:02;;;;;;;4.53;1.93;;;21.40;99.90;;;;;;5031634;28;20416;-68
2021/09/13 07:22:27;;;;;;;3.53;1.90;;;21.10;99.90;;;;;;5031871;28;20182;-68
2021/09/13 07:24:53;;;;;;;2.33;1.67;;;21.20;99.90;;;;;;5031709;28;20203;-67
2021/09/13 07:27:19;;;;;;;2.90;2.10;;;22.20;99.90;;;;;;5031909;28;20198;-69
2021/09/13 07:29:44;;;;;;;2.60;2.40;;;22.60;99.90;;;;;;5031771;28;20453;-68
2021/09/13 07:32:10;;;;;;;5.73;2.20;;;22.40;99.90;;;;;;5032004;28;20170;-68
2021/09/13 07:34:36;;;;;;;2.13;1.67;;;22.00;99.90;;;;;;5031727;28;20183;-68
2021/09/13 07:37:02;;;;;;;2.00;1.80;;;21.90;99.90;;;;;;5030995;28;20159;-69
2021/09/13 07:39:29;;;;;;;5.60;2.80;;;22.00;99.90;;;;;;5030573;28;20420;-71
2021/09/13 07:41:55;;;;;;;2.00;1.80;;;22.10;99.90;;;;;;5030667;28;20508;-67
2021/09/13 07:44:21;;;;;;;1.70;1.53;;;22.20;99.90;;;;;;5030447;28;20547;-67
2021/09/13 07:46:47;;;;;;;3.30;2.60;;;20.10;99.90;;;;;;5030457;28;20854;-68
2021/09/13 07:49:12;;;;;;;2.67;1.80;;;20.50;99.90;;;;;;5030987;28;20190;-68
2021/09/13 07:51:38;;;;;;;2.60;2.13;;;22.00;99.90;;;;;;5030681;28;20240;-68
2021/09/13 07:54:05;;;;;;;1.93;1.73;;;23.00;99.90;;;;;;5030977;28;20191;-68
2021/09/13 07:56:31;;;;;;;3.80;1.83;;;23.20;99.90;;;;;;5031017;28;20270;-67
2021/09/13 07:58:56;;;;;;;4.50;2.17;;;24.00;99.90;;;;;;5030987;28;20498;-67
2021/09/13 08:01:22;;;;;;;3.50;2.03;;;22.20;99.90;;;;;;5030786;28;20175;-67
2021/09/13 08:03:47;;;;;;;7.50;2.80;;;22.20;99.90;;;;;;5031046;28;20351;-68
2021/09/13 08:06:13;;;;;;;3.30;2.43;;;23.80;99.90;;;;;;5030824;28;20233;-67
2021/09/13 08:08:38;;;;;;;2.13;1.70;;;23.50;99.90;;;;;;5029644;28;20179;-68
2021/09/13 08:11:04;;;;;;;6.70;2.90;;;22.40;99.90;;;;;;5028712;28;20647;-68
2021/09/13 08:13:30;;;;;;;2.43;1.90;;;22.80;99.90;;;;;;5011778;28;20184;-68
2021/09/13 08:15:56;;;;;;;2.33;1.90;;;21.90;99.90;;;;;;5030565;28;20497;-68
2021/09/13 08:18:21;;;;;;;2.83;2.40;;;21.60;99.90;;;;;;5030652;28;20171;-69
2021/09/13 08:20:47;;;;;;;2.53;2.30;;;22.80;99.90;;;;;;5030760;28;20168;-70
2021/09/13 08:23:12;;;;;;;3.43;2.03;;;24.50;99.90;;;;;;5030712;28;20549;-69
2021/09/13 08:25:38;;;;;;;3.30;2.57;;;23.60;99.90;;;;;;5031087;28;20187;-69
2021/09/13 08:28:03;;;;;;;3.53;2.03;;;24.20;99.90;;;;;;5030663;28;20639;-69
2021/09/13 08:30:29;;;;;;;3.30;2.63;;;23.00;99.90;;;;;;5031203;28;20199;-69
2021/09/13 08:32:55;;;;;;;6.03;1.70;;;24.00;99.90;;;;;;5034454;28;20167;-69
2021/09/13 08:35:20;;;;;;;3.80;1.80;;;24.70;99.90;;;;;;5034415;28;20168;-69
2021/09/13 08:37:46;;;;;;;2.73;2.17;;;22.40;99.90;;;;;;5034492;28;20484;-69
2021/09/13 08:40:12;;;;;;;3.40;1.93;;;22.60;99.90;;;;;;5034458;28;20171;-69
2021/09/13 08:42:49;;;;;;;3.20;1.73;;;23.00;99.90;;;;;;5034349;28;20176;-69
2021/09/13 08:45:20;;;;;;;3.33;1.97;;;23.30;99.90;;;;;;5034432;28;20168;-67
2021/09/13 08:48:00;;;;;;;5.33;1.93;;;22.90;99.90;;;;;;5034743;28;20438;-69
2021/09/13 08:50:37;;;;;;;1.80;1.70;;;22.90;99.90;;;;;;5034192;28;20964;-69
2021/09/13 08:53:03;;;;;;;3.37;2.10;;;22.10;99.90;;;;;;5034046;28;20493;-67
2021/09/13 08:55:29;;;;;;;1.87;1.77;;;23.10;99.90;;;;;;5033919;28;20433;-67
2021/09/13 08:57:55;;;;;;;4.63;1.90;;;23.00;99.90;;;;;;5033731;28;20819;-68
2021/09/13 09:00:20;;;;;;;3.20;1.90;;;22.80;99.90;;;;;;5033835;28;20262;-69
2021/09/13 09:02:46;;;;;;;3.03;2.10;;;23.30;99.90;;;;;;5033986;28;20225;-69
2021/09/13 09:05:13;;;;;;;3.07;2.50;;;23.60;99.90;;;;;;5033842;28;20202;-70
2021/09/13 09:07:52;;;;;;;3.23;2.00;;;23.20;99.90;;;;;;5033821;28;20167;-69
2021/09/13 09:10:24;;;;;;;2.60;2.10;;;22.80;99.90;;;;;;5033703;28;20540;-67
2021/09/13 09:13:03;;;;;;;3.37;1.70;;;21.40;99.90;;;;;;5033658;28;20950;-69
2021/09/13 09:15:30;;;;;;;4.93;2.10;;;21.60;99.90;;;;;;5034059;28;20416;-68
2021/09/13 09:17:57;;;;;;;2.43;1.83;;;22.70;99.90;;;;;;5033751;28;20841;-68
2021/09/13 09:20:23;;;;;;;3.80;1.87;;;22.10;99.90;;;;;;5033993;28;20410;-68
2021/09/13 09:23:02;;;;;;;2.17;1.97;;;22.30;99.90;;;;;;5033568;28;20818;-68
2021/09/13 09:25:30;;;;;;;3.70;2.10;;;22.10;99.90;;;;;;5033482;28;20489;-68
2021/09/13 09:28:02;;;;;;;2.53;1.70;;;22.00;99.90;;;;;;5033627;28;20451;-68
2021/09/13 09:30:37;;;;;;;2.17;1.40;;;22.00;99.90;;;;;;5033729;28;20491;-69
2021/09/13 09:33:10;;;;;;;2.30;1.60;;;21.50;99.90;;;;;;5033427;28;20405;-69
2021/09/13 09:35:54;;;;;;;2.93;1.43;;;22.40;99.90;;;;;;5033647;28;20464;-71
2021/09/13 09:38:41;;;;;;;1.80;1.70;;;22.90;99.90;;;;;;5033359;28;20406;-69
2021/09/13 09:41:09;;;;;;;5.70;2.30;;;22.70;99.90;;;;;;5033214;28;20492;-68
2021/09/13 09:43:55;;;;;;;3.30;1.90;;;22.80;99.90;;;;;;5032413;28;20418;-68
2021/09/13 09:46:21;;;;;;;2.53;1.97;;;22.30;99.90;;;;;;5033163;28;20946;-68
2021/09/13 09:48:47;;;;;;;2.60;1.73;;;22.30;99.90;;;;;;5033080;28;20496;-69
2021/09/13 09:51:29;;;;;;;2.90;2.20;;;21.70;99.90;;;;;;5033571;28;20167;-68
2021/09/13 09:53:56;;;;;;;4.67;2.30;;;20.30;99.90;;;;;;5033949;28;20463;-68
2021/09/13 09:56:25;;;;;;;3.23;2.50;;;20.90;99.90;;;;;;5033641;28;20432;-68
2021/09/13 09:59:08;;;;;;;2.90;2.70;;;21.10;99.90;;;;;;5033418;28;20410;-69
2021/09/13 10:01:43;;;;;;;2.30;2.10;;;21.10;99.90;;;;;;5033618;28;20482;-69
2021/09/13 10:04:25;;;;;;;2.37;1.90;;;20.90;99.90;;;;;;5033365;28;20494;-69
2021/09/13 10:06:52;;;;;;;2.30;2.10;;;20.60;99.90;;;;;;5033047;28;20413;-69
2021/09/13 10:09:19;;;;;;;3.70;2.10;;;20.50;99.90;;;;;;5033286;28;20465;-71
2021/09/13 10:11:46;;;;;;;2.23;1.73;;;20.60;99.90;;;;;;5033126;28;20398;-69
2021/09/13 10:14:18;;;;;;;2.30;1.93;;;20.70;99.90;;;;;;5033406;28;20433;-69
2021/09/13 10:16:45;;;;;;;2.87;2.00;;;20.50;99.90;;;;;;5033446;28;20395;-70
2021/09/13 10:19:11;;;;;;;2.53;2.30;;;20.50;99.90;;;;;;5032954;28;20413;-70
2021/09/13 10:21:37;;;;;;;3.07;2.00;;;20.80;99.90;;;;;;5032475;28;20408;-69
2021/09/13 10:24:07;;;;;;;2.07;1.87;;;21.10;99.90;;;;;;5032618;28;20443;-70
2021/09/13 10:26:35;;;;;;;3.17;2.73;;;20.90;99.90;;;;;;5032837;28;20255;-70
2021/09/13 10:29:03;;;;;;;2.23;2.03;;;20.00;99.90;;;;;;5032425;28;20539;-71
2021/09/13 10:31:47;;;;;;;7.40;3.40;;;20.20;99.90;;;;;;5032319;28;20418;-70
2021/09/13 10:34:16;;;;;;;3.53;2.37;;;21.00;99.90;;;;;;5032544;28;20868;-69
2021/09/13 10:37:05;;;;;;;2.20;1.53;;;21.20;99.90;;;;;;5032151;28;20494;-71
2021/09/13 10:39:57;;;;;;;2.10;1.90;;;20.80;99.90;;;;;;5032149;28;20905;-70
2021/09/13 10:42:33;;;;;;;1.87;1.73;;;20.60;99.90;;;;;;5014095;28;20513;-69
2021/09/13 10:45:27;;;;;;;5.30;1.80;;;20.50;99.90;;;;;;5032290;28;20435;-69
2021/09/13 10:47:57;;;;;;;2.10;1.93;;;20.90;99.90;;;;;;5031979;28;20879;-68
2021/09/13 10:50:24;;;;;;;3.47;2.20;;;20.90;99.90;;;;;;5014199;28;20480;-69
2021/09/13 10:52:52;;;;;;;3.03;2.10;;;20.90;99.90;;;;;;5014096;28;20555;-70
2021/09/13 10:55:29;;;;;;;3.73;2.10;;;20.60;99.90;;;;;;5031794;28;20503;-70
2021/09/13 10:58:04;;;;;;;2.47;1.70;;;20.70;99.90;;;;;;5031895;28;20431;-69
2021/09/13 11:00:42;;;;;;;1.57;1.43;;;20.70;99.90;;;;;;5032038;28;21057;-69
2021/09/13 11:03:23;;;;;;;2.10;1.50;;;21.10;99.90;;;;;;5031594;28;20517;-71
2021/09/13 11:06:11;;;;;;;2.20;1.53;;;20.90;99.90;;;;;;5031958;28;20413;-69
2021/09/13 11:08:45;;;;;;;2.57;2.13;;;21.00;99.90;;;;;;5031835;28;20940;-69
2021/09/13 11:11:16;;;;;;;2.60;1.77;;;20.50;99.90;;;;;;5031850;28;20408;-69
2021/09/13 11:13:44;;;;;;;1.83;1.70;;;20.50;99.90;;;;;;5031459;28;20427;-71
2021/09/13 11:16:14;;;;;;;3.77;1.97;;;20.70;99.90;;;;;;5031746;28;20431;-67
2021/09/13 11:18:42;;;;;;;3.97;1.93;;;20.80;99.90;;;;;;5031469;28;20396;-69
2021/09/13 11:21:25;;;;;;;2.40;1.90;;;20.30;99.90;;;;;;5031428;28;20452;-70
2021/09/13 11:24:00;;;;;;;2.63;2.00;;;20.50;99.90;;;;;;5031424;28;20438;-69
2021/09/13 11:26:42;;;;;;;5.67;2.30;;;20.50;99.90;;;;;;5031340;28;20409;-69
2021/09/13 11:29:13;;;;;;;2.33;2.00;;;20.00;99.90;;;;;;5031510;28;20443;-68
2021/09/13 11:31:48;;;;;;;2.83;1.67;;;19.70;99.90;;;;;;5031572;28;20440;-69
2021/09/13 11:34:14;;;;;;;2.10;1.90;;;20.30;99.90;;;;;;5031357;28;20418;-68
2021/09/13 11:37:02;;;;;;;3.80;2.50;;;20.50;99.90;;;;;;5031151;28;20466;-69
2021/09/13 11:39:32;;;;;;;4.03;2.00;;;20.70;99.90;;;;;;5021749;28;20193;-68
2021/09/13 11:41:59;;;;;;;3.00;1.90;;;20.10;99.90;;;;;;5031244;28;20518;-69
2021/09/13 11:44:25;;;;;;;1.93;1.77;;;20.20;99.90;;;;;;5031184;28;20450;-69
2021/09/13 11:46:52;;;;;;;5.13;2.57;;;20.40;99.90;;;;;;5031064;28;20498;-69
2021/09/13 11:49:25;;;;;;;2.20;1.77;;;20.20;99.90;;;;;;5031437;28;20443;-68
2021/09/13 11:52:10;;;;;;;2.50;1.97;;;20.60;99.90;;;;;;5031200;28;20786;-68
2021/09/13 11:54:46;;;;;;;2.57;1.97;;;20.50;99.90;;;;;;5030971;28;20776;-68
2021/09/13 11:57:38;;;;;;;2.43;2.23;;;20.90;99.90;;;;;;5031084;28;20409;-68
2021/09/13 12:00:16;;;;;;;3.23;2.60;;;20.90;99.90;;;;;;5031354;28;20822;-68
2021/09/13 12:02:46;;;;;;;2.07;1.87;;;21.30;99.90;;;;;;5031585;28;20454;-69
2021/09/13 12:05:15;;;;;;;2.63;1.93;;;21.60;99.90;;;;;;5031006;28;20448;-69
2021/09/13 12:07:42;;;;;;;2.30;2.00;;;21.30;99.90;;;;;;5035110;28;20783;-68
2021/09/13 12:10:09;;;;;;;2.03;1.73;;;21.60;99.90;;;;;;5035214;28;20528;-68
2021/09/13 12:12:36;;;;;;;2.00;1.63;;;21.30;99.90;;;;;;5035311;28;20453;-67
2021/09/13 12:15:06;;;;;;;3.77;2.30;;;21.40;99.90;;;;;;5035266;28;20468;-69
2021/09/13 12:17:38;;;;;;;1.80;1.67;;;21.40;99.90;;;;;;5034985;28;20419;-68
2021/09/13 12:20:20;;;;;;;2.70;1.90;;;21.10;99.90;;;;;;5034888;28;20928;-67
2021/09/13 12:22:55;;;;;;;1.97;1.60;;;20.90;99.90;;;;;;5034988;28;20425;-69
2021/09/13 12:25:21;;;;;;;2.90;1.87;;;20.70;99.90;;;;;;5035258;28;20453;-68
2021/09/13 12:27:53;;;;;;;2.47;2.20;;;20.50;99.90;;;;;;5035018;28;20410;-67
2021/09/13 12:30:22;;;;;;;2.27;2.07;;;20.60;99.90;;;;;;5034784;28;20508;-68
2021/09/13 12:32:54;;;;;;;1.67;1.57;;;20.40;99.90;;;;;;5034435;28;20416;-68
2021/09/13 12:35:34;;;;;;;1.83;1.70;;;20.60;99.90;;;;;;5034572;28;20424;-68
2021/09/13 12:38:00;;;;;;;2.63;2.13;;;20.50;99.90;;;;;;5034687;28;20396;-68
2021/09/13 12:40:25;;;;;;;2.30;1.90;;;20.50;99.90;;;;;;5034657;28;20935;-68
2021/09/13 12:42:55;;;;;;;2.00;1.80;;;20.60;99.90;;;;;;5034425;28;20439;-68
2021/09/13 12:45:23;;;;;;;2.30;1.80;;;20.60;99.90;;;;;;5034236;28;20179;-70
2021/09/13 12:47:51;;;;;;;3.83;2.53;;;20.60;99.90;;;;;;5034214;28;20427;-69